sensor_id;sensor_type;location;lat;lon;timestamp;temperature;humidity
60242;SHT30;46103;52.076;113.488;2023-06-22T00:00:14;17.25;45.50
60242;SHT30;46103;52.076;113.488;2023-06-22T00:03:21;17.43;45.27
60242;SHT30;46103;52.076;113.488;2023-06-22T00:06:25;17.50;45.19
60242;SHT30;46103;52.076;113.488;2023-06-22T00:09:31;17.77;44.70
60242;SHT30;46103;52.076;113.488;2023-06-22T00:12:36;17.93;44.43
60242;SHT30;46103;52.076;113.488;2023-06-22T00:15:41;18.08;44.14
60242;SHT30;46103;52.076;113.488;2023-06-22T00:18:47;18.18;44.04
60242;SHT30;46103;52.076;113.488;2023-06-22T00:21:54;18.35;43.76
60242;SHT30;46103;52.076;113.488;2023-06-22T00:24:59;18.41;43.93
60242;SHT30;46103;52.076;113.488;2023-06-22T00:28:05;18.29;44.20
60242;SHT30;46103;52.076;113.488;2023-06-22T00:31:10;18.51;43.63
60242;SHT30;46103;52.076;113.488;2023-06-22T00:34:15;18.64;43.27
60242;SHT30;46103;52.076;113.488;2023-06-22T00:37:20;18.84;42.85
60242;SHT30;46103;52.076;113.488;2023-06-22T00:40:29;19.04;42.35
60242;SHT30;46103;52.076;113.488;2023-06-22T00:43:34;19.00;42.50
60242;SHT30;46103;52.076;113.488;2023-06-22T00:46:37;19.17;42.48
60242;SHT30;46103;52.076;113.488;2023-06-22T00:49:42;19.34;41.87
60242;SHT30;46103;52.076;113.488;2023-06-22T00:52:52;19.52;41.26
60242;SHT30;46103;52.076;113.488;2023-06-22T00:55:57;19.52;41.25
60242;SHT30;46103;52.076;113.488;2023-06-22T00:59:03;19.61;41.17
60242;SHT30;46103;52.076;113.488;2023-06-22T01:02:07;19.70;40.71
60242;SHT30;46103;52.076;113.488;2023-06-22T01:05:14;19.83;39.57
60242;SHT30;46103;52.076;113.488;2023-06-22T01:08:44;20.03;38.40
60242;SHT30;46103;52.076;113.488;2023-06-22T01:11:54;20.31;38.54
60242;SHT30;46103;52.076;113.488;2023-06-22T01:15:11;20.65;38.57
60242;SHT30;46103;52.076;113.488;2023-06-22T01:18:19;21.03;37.12
60242;SHT30;46103;52.076;113.488;2023-06-22T01:21:31;21.28;37.28
60242;SHT30;46103;52.076;113.488;2023-06-22T01:31:26;21.68;36.06
60242;SHT30;46103;52.076;113.488;2023-06-22T01:34:33;21.96;35.29
60242;SHT30;46103;52.076;113.488;2023-06-22T01:37:38;22.10;34.76
60242;SHT30;46103;52.076;113.488;2023-06-22T01:40:43;22.21;34.26
60242;SHT30;46103;52.076;113.488;2023-06-22T01:43:48;22.33;33.78
60242;SHT30;46103;52.076;113.488;2023-06-22T01:46:54;22.34;33.82
60242;SHT30;46103;52.076;113.488;2023-06-22T01:50:00;22.60;33.44
60242;SHT30;46103;52.076;113.488;2023-06-22T01:53:04;22.69;33.18
60242;SHT30;46103;52.076;113.488;2023-06-22T01:56:10;22.78;33.29
60242;SHT30;46103;52.076;113.488;2023-06-22T01:59:45;22.87;33.24
60242;SHT30;46103;52.076;113.488;2023-06-22T02:02:59;23.08;33.26
60242;SHT30;46103;52.076;113.488;2023-06-22T02:06:10;23.33;32.18
60242;SHT30;46103;52.076;113.488;2023-06-22T02:09:17;23.53;31.95
60242;SHT30;46103;52.076;113.488;2023-06-22T02:12:25;23.74;31.55
60242;SHT30;46103;52.076;113.488;2023-06-22T02:15:31;23.87;31.55
60242;SHT30;46103;52.076;113.488;2023-06-22T02:18:36;24.01;31.15
60242;SHT30;46103;52.076;113.488;2023-06-22T02:21:41;24.19;31.07
60242;SHT30;46103;52.076;113.488;2023-06-22T02:24:45;24.26;30.88
60242;SHT30;46103;52.076;113.488;2023-06-22T02:27:50;24.37;30.73
60242;SHT30;46103;52.076;113.488;2023-06-22T02:30:55;24.43;30.64
60242;SHT30;46103;52.076;113.488;2023-06-22T02:34:00;24.50;30.28
60242;SHT30;46103;52.076;113.488;2023-06-22T02:37:04;24.60;30.29
60242;SHT30;46103;52.076;113.488;2023-06-22T02:40:09;24.74;30.50
60242;SHT30;46103;52.076;113.488;2023-06-22T02:43:14;24.84;30.35
60242;SHT30;46103;52.076;113.488;2023-06-22T02:46:19;24.83;30.59
60242;SHT30;46103;52.076;113.488;2023-06-22T02:49:24;24.97;29.93
60242;SHT30;46103;52.076;113.488;2023-06-22T02:52:29;25.11;29.99
60242;SHT30;46103;52.076;113.488;2023-06-22T02:55:34;25.21;30.12
60242;SHT30;46103;52.076;113.488;2023-06-22T02:58:41;25.18;29.62
60242;SHT30;46103;52.076;113.488;2023-06-22T03:01:48;25.36;29.20
60242;SHT30;46103;52.076;113.488;2023-06-22T03:04:59;25.61;28.84
60242;SHT30;46103;52.076;113.488;2023-06-22T03:08:06;25.76;27.79
60242;SHT30;46103;52.076;113.488;2023-06-22T03:11:10;25.81;28.30
60242;SHT30;46103;52.076;113.488;2023-06-22T03:14:16;25.86;28.25
60242;SHT30;46103;52.076;113.488;2023-06-22T03:17:23;25.86;28.07
60242;SHT30;46103;52.076;113.488;2023-06-22T03:20:28;25.97;27.14
60242;SHT30;46103;52.076;113.488;2023-06-22T03:23:37;26.07;26.92
60242;SHT30;46103;52.076;113.488;2023-06-22T03:26:41;26.08;26.63
60242;SHT30;46103;52.076;113.488;2023-06-22T03:29:46;26.27;26.18
60242;SHT30;46103;52.076;113.488;2023-06-22T03:32:50;26.29;25.78
60242;SHT30;46103;52.076;113.488;2023-06-22T03:35:55;26.38;25.81
60242;SHT30;46103;52.076;113.488;2023-06-22T03:38:59;26.49;25.58
60242;SHT30;46103;52.076;113.488;2023-06-22T03:42:04;26.58;25.65
60242;SHT30;46103;52.076;113.488;2023-06-22T03:45:09;26.71;25.72
60242;SHT30;46103;52.076;113.488;2023-06-22T03:48:15;26.75;24.61
60242;SHT30;46103;52.076;113.488;2023-06-22T03:51:21;26.82;25.06
60242;SHT30;46103;52.076;113.488;2023-06-22T03:54:26;26.80;25.86
60242;SHT30;46103;52.076;113.488;2023-06-22T03:57:30;26.86;25.95
60242;SHT30;46103;52.076;113.488;2023-06-22T04:00:35;26.93;25.87
60242;SHT30;46103;52.076;113.488;2023-06-22T04:03:41;27.11;26.16
60242;SHT30;46103;52.076;113.488;2023-06-22T04:06:46;27.23;26.08
60242;SHT30;46103;52.076;113.488;2023-06-22T04:09:53;27.18;25.67
60242;SHT30;46103;52.076;113.488;2023-06-22T04:12:58;27.20;25.79
60242;SHT30;46103;52.076;113.488;2023-06-22T04:16:03;27.21;26.08
60242;SHT30;46103;52.076;113.488;2023-06-22T04:19:08;27.18;26.01
60242;SHT30;46103;52.076;113.488;2023-06-22T04:22:17;27.20;25.90
60242;SHT30;46103;52.076;113.488;2023-06-22T04:25:22;27.21;26.13
60242;SHT30;46103;52.076;113.488;2023-06-22T04:28:26;27.29;26.32
60242;SHT30;46103;52.076;113.488;2023-06-22T04:31:31;27.33;26.13
60242;SHT30;46103;52.076;113.488;2023-06-22T04:34:35;27.35;26.01
60242;SHT30;46103;52.076;113.488;2023-06-22T04:37:39;27.45;25.31
60242;SHT30;46103;52.076;113.488;2023-06-22T04:40:43;27.45;25.24
60242;SHT30;46103;52.076;113.488;2023-06-22T04:43:47;27.49;26.06
60242;SHT30;46103;52.076;113.488;2023-06-22T04:46:59;27.31;26.09
60242;SHT30;46103;52.076;113.488;2023-06-22T04:50:12;27.44;25.99
60242;SHT30;46103;52.076;113.488;2023-06-22T04:53:16;27.61;25.98
60242;SHT30;46103;52.076;113.488;2023-06-22T04:56:20;27.81;25.54
60242;SHT30;46103;52.076;113.488;2023-06-22T04:59:29;27.93;25.79
60242;SHT30;46103;52.076;113.488;2023-06-22T05:02:34;27.89;25.84
60242;SHT30;46103;52.076;113.488;2023-06-22T05:05:38;27.86;25.51
60242;SHT30;46103;52.076;113.488;2023-06-22T05:08:42;27.81;25.77
60242;SHT30;46103;52.076;113.488;2023-06-22T05:11:47;27.97;25.84
60242;SHT30;46103;52.076;113.488;2023-06-22T05:14:51;28.06;25.63
60242;SHT30;46103;52.076;113.488;2023-06-22T05:17:55;27.97;25.82
60242;SHT30;46103;52.076;113.488;2023-06-22T05:20:59;28.00;25.94
60242;SHT30;46103;52.076;113.488;2023-06-22T05:24:04;28.10;25.86
60242;SHT30;46103;52.076;113.488;2023-06-22T05:27:09;28.25;25.70
60242;SHT30;46103;52.076;113.488;2023-06-22T05:30:13;28.43;25.62
60242;SHT30;46103;52.076;113.488;2023-06-22T05:33:17;28.54;25.84
60242;SHT30;46103;52.076;113.488;2023-06-22T05:36:22;28.68;26.13
60242;SHT30;46103;52.076;113.488;2023-06-22T05:39:29;28.65;25.91
60242;SHT30;46103;52.076;113.488;2023-06-22T05:42:33;28.67;25.39
60242;SHT30;46103;52.076;113.488;2023-06-22T05:45:37;28.78;25.47
60242;SHT30;46103;52.076;113.488;2023-06-22T05:48:40;28.96;24.89
60242;SHT30;46103;52.076;113.488;2023-06-22T05:51:44;29.06;24.62
60242;SHT30;46103;52.076;113.488;2023-06-22T05:54:48;29.26;24.46
60242;SHT30;46103;52.076;113.488;2023-06-22T05:57:52;29.49;25.05
60242;SHT30;46103;52.076;113.488;2023-06-22T06:00:57;29.71;24.43
60242;SHT30;46103;52.076;113.488;2023-06-22T06:04:05;29.81;24.36
60242;SHT30;46103;52.076;113.488;2023-06-22T06:07:11;30.01;23.95
60242;SHT30;46103;52.076;113.488;2023-06-22T06:10:15;30.22;23.36
60242;SHT30;46103;52.076;113.488;2023-06-22T06:13:19;30.47;23.14
60242;SHT30;46103;52.076;113.488;2023-06-22T06:16:23;30.85;22.42
60242;SHT30;46103;52.076;113.488;2023-06-22T06:19:26;31.02;22.56
60242;SHT30;46103;52.076;113.488;2023-06-22T06:22:31;31.22;22.32
60242;SHT30;46103;52.076;113.488;2023-06-22T06:25:34;31.42;22.76
60242;SHT30;46103;52.076;113.488;2023-06-22T06:28:38;31.69;21.65
60242;SHT30;46103;52.076;113.488;2023-06-22T06:31:42;31.87;22.26
60242;SHT30;46103;52.076;113.488;2023-06-22T06:34:46;31.97;22.00
60242;SHT30;46103;52.076;113.488;2023-06-22T06:37:50;32.39;21.45
60242;SHT30;46103;52.076;113.488;2023-06-22T06:40:55;33.40;20.67
60242;SHT30;46103;52.076;113.488;2023-06-22T06:43:59;34.13;19.56
60242;SHT30;46103;52.076;113.488;2023-06-22T06:47:04;34.71;19.25
60242;SHT30;46103;52.076;113.488;2023-06-22T06:50:08;35.42;18.83
60242;SHT30;46103;52.076;113.488;2023-06-22T06:53:12;36.18;18.13
60242;SHT30;46103;52.076;113.488;2023-06-22T06:56:16;36.91;17.80
60242;SHT30;46103;52.076;113.488;2023-06-22T06:59:20;37.41;17.48
60242;SHT30;46103;52.076;113.488;2023-06-22T07:02:24;37.35;17.56
60242;SHT30;46103;52.076;113.488;2023-06-22T07:05:28;37.86;16.84
60242;SHT30;46103;52.076;113.488;2023-06-22T07:08:32;38.79;16.00
60242;SHT30;46103;52.076;113.488;2023-06-22T07:11:36;39.50;15.45
60242;SHT30;46103;52.076;113.488;2023-06-22T07:14:39;39.98;15.64
60242;SHT30;46103;52.076;113.488;2023-06-22T07:17:44;39.58;15.64
60242;SHT30;46103;52.076;113.488;2023-06-22T07:20:47;39.26;15.66
60242;SHT30;46103;52.076;113.488;2023-06-22T07:23:52;40.01;15.93
60242;SHT30;46103;52.076;113.488;2023-06-22T07:26:57;40.63;15.07
60242;SHT30;46103;52.076;113.488;2023-06-22T07:30:02;41.13;14.91
60242;SHT30;46103;52.076;113.488;2023-06-22T07:33:06;41.53;15.53
60242;SHT30;46103;52.076;113.488;2023-06-22T07:36:12;41.37;15.89
60242;SHT30;46103;52.076;113.488;2023-06-22T07:39:15;41.38;15.95
60242;SHT30;46103;52.076;113.488;2023-06-22T07:42:20;41.80;15.60
60242;SHT30;46103;52.076;113.488;2023-06-22T07:45:24;41.92;15.32
60242;SHT30;46103;52.076;113.488;2023-06-22T07:48:28;41.79;15.17
60242;SHT30;46103;52.076;113.488;2023-06-22T07:51:34;42.03;15.12
60242;SHT30;46103;52.076;113.488;2023-06-22T07:54:39;42.37;15.04
60242;SHT30;46103;52.076;113.488;2023-06-22T07:57:43;42.55;14.84
60242;SHT30;46103;52.076;113.488;2023-06-22T08:00:49;42.55;14.97
60242;SHT30;46103;52.076;113.488;2023-06-22T08:03:53;43.38;14.75
60242;SHT30;46103;52.076;113.488;2023-06-22T08:06:57;42.65;15.27
60242;SHT30;46103;52.076;113.488;2023-06-22T08:10:01;42.87;15.33
60242;SHT30;46103;52.076;113.488;2023-06-22T08:13:06;43.55;15.03
60242;SHT30;46103;52.076;113.488;2023-06-22T08:16:11;43.81;14.90
60242;SHT30;46103;52.076;113.488;2023-06-22T08:19:15;44.15;14.50
60242;SHT30;46103;52.076;113.488;2023-06-22T08:22:18;44.30;14.33
60242;SHT30;46103;52.076;113.488;2023-06-22T08:25:22;44.56;14.34
60242;SHT30;46103;52.076;113.488;2023-06-22T08:28:26;45.15;13.92
60242;SHT30;46103;52.076;113.488;2023-06-22T08:31:31;45.04;13.72
60242;SHT30;46103;52.076;113.488;2023-06-22T08:34:38;44.80;13.76
60242;SHT30;46103;52.076;113.488;2023-06-22T08:37:46;45.19;13.66
60242;SHT30;46103;52.076;113.488;2023-06-22T08:40:55;44.91;13.73
60242;SHT30;46103;52.076;113.488;2023-06-22T08:44:00;44.93;13.82
60242;SHT30;46103;52.076;113.488;2023-06-22T08:47:04;44.68;14.07
60242;SHT30;46103;52.076;113.488;2023-06-22T08:50:11;45.50;13.69
60242;SHT30;46103;52.076;113.488;2023-06-22T08:53:15;45.70;13.40
60242;SHT30;46103;52.076;113.488;2023-06-22T08:56:20;45.25;13.87
60242;SHT30;46103;52.076;113.488;2023-06-22T08:59:25;45.52;13.18
60242;SHT30;46103;52.076;113.488;2023-06-22T09:02:29;45.66;13.39
60242;SHT30;46103;52.076;113.488;2023-06-22T09:05:34;45.52;13.47
60242;SHT30;46103;52.076;113.488;2023-06-22T09:08:38;46.20;13.35
60242;SHT30;46103;52.076;113.488;2023-06-22T09:11:42;45.94;13.36
60242;SHT30;46103;52.076;113.488;2023-06-22T09:14:46;45.29;13.76
60242;SHT30;46103;52.076;113.488;2023-06-22T09:17:51;45.99;13.68
60242;SHT30;46103;52.076;113.488;2023-06-22T09:20:57;46.64;13.46
60242;SHT30;46103;52.076;113.488;2023-06-22T09:24:00;46.86;13.36
60242;SHT30;46103;52.076;113.488;2023-06-22T09:27:03;47.16;13.34
60242;SHT30;46103;52.076;113.488;2023-06-22T09:30:08;47.06;13.27
60242;SHT30;46103;52.076;113.488;2023-06-22T09:33:12;46.61;13.38
60242;SHT30;46103;52.076;113.488;2023-06-22T09:36:16;46.42;13.57
60242;SHT30;46103;52.076;113.488;2023-06-22T09:39:20;46.69;13.40
60242;SHT30;46103;52.076;113.488;2023-06-22T09:42:24;47.41;13.29
60242;SHT30;46103;52.076;113.488;2023-06-22T09:45:28;47.34;13.07
60242;SHT30;46103;52.076;113.488;2023-06-22T09:48:31;46.38;13.68
60242;SHT30;46103;52.076;113.488;2023-06-22T09:51:35;46.82;13.63
60242;SHT30;46103;52.076;113.488;2023-06-22T09:54:38;47.36;13.46
60242;SHT30;46103;52.076;113.488;2023-06-22T09:57:41;47.62;13.49
60242;SHT30;46103;52.076;113.488;2023-06-22T10:00:44;46.93;13.86
60242;SHT30;46103;52.076;113.488;2023-06-22T10:03:48;47.23;13.44
60242;SHT30;46103;52.076;113.488;2023-06-22T10:06:51;47.56;13.36
60242;SHT30;46103;52.076;113.488;2023-06-22T10:09:54;47.85;13.21
60242;SHT30;46103;52.076;113.488;2023-06-22T10:13:07;46.72;13.69
60242;SHT30;46103;52.076;113.488;2023-06-22T10:16:12;46.32;13.89
60242;SHT30;46103;52.076;113.488;2023-06-22T10:19:16;46.50;13.91
60242;SHT30;46103;52.076;113.488;2023-06-22T10:22:19;46.10;14.15
60242;SHT30;46103;52.076;113.488;2023-06-22T10:25:23;46.35;13.99
60242;SHT30;46103;52.076;113.488;2023-06-22T10:28:26;47.14;13.58
60242;SHT30;46103;52.076;113.488;2023-06-22T10:31:33;47.29;13.52
60242;SHT30;46103;52.076;113.488;2023-06-22T10:34:37;47.47;13.58
60242;SHT30;46103;52.076;113.488;2023-06-22T10:37:41;47.13;13.79
60242;SHT30;46103;52.076;113.488;2023-06-22T10:40:49;47.01;13.83
60242;SHT30;46103;52.076;113.488;2023-06-22T10:43:52;47.34;13.75
60242;SHT30;46103;52.076;113.488;2023-06-22T10:46:56;47.62;13.65
60242;SHT30;46103;52.076;113.488;2023-06-22T10:50:02;48.15;13.51
60242;SHT30;46103;52.076;113.488;2023-06-22T10:53:06;47.85;13.69
60242;SHT30;46103;52.076;113.488;2023-06-22T10:56:09;47.33;13.80
60242;SHT30;46103;52.076;113.488;2023-06-22T10:59:13;47.23;13.71
60242;SHT30;46103;52.076;113.488;2023-06-22T11:02:17;46.72;13.97
60242;SHT30;46103;52.076;113.488;2023-06-22T11:05:20;46.04;14.24
60242;SHT30;46103;52.076;113.488;2023-06-22T11:08:23;45.77;14.37
60242;SHT30;46103;52.076;113.488;2023-06-22T11:11:26;46.16;14.25
60242;SHT30;46103;52.076;113.488;2023-06-22T11:14:30;46.48;14.10
60242;SHT30;46103;52.076;113.488;2023-06-22T11:17:33;46.41;14.16
60242;SHT30;46103;52.076;113.488;2023-06-22T11:20:36;45.86;14.36
60242;SHT30;46103;52.076;113.488;2023-06-22T11:23:42;45.69;14.45
60242;SHT30;46103;52.076;113.488;2023-06-22T11:26:45;45.86;14.46
60242;SHT30;46103;52.076;113.488;2023-06-22T11:29:52;45.82;14.46
60242;SHT30;46103;52.076;113.488;2023-06-22T11:32:59;45.59;14.62
60242;SHT30;46103;52.076;113.488;2023-06-22T11:36:04;45.28;14.75
60242;SHT30;46103;52.076;113.488;2023-06-22T11:39:08;45.04;14.81
60242;SHT30;46103;52.076;113.488;2023-06-22T11:42:12;44.83;14.85
60242;SHT30;46103;52.076;113.488;2023-06-22T11:45:15;44.64;14.93
60242;SHT30;46103;52.076;113.488;2023-06-22T11:48:20;44.59;14.98
60242;SHT30;46103;52.076;113.488;2023-06-22T11:51:24;44.32;15.20
60242;SHT30;46103;52.076;113.488;2023-06-22T11:54:29;43.43;15.56
60242;SHT30;46103;52.076;113.488;2023-06-22T11:57:35;43.47;16.36
60242;SHT30;46103;52.076;113.488;2023-06-22T12:00:40;43.23;15.84
60242;SHT30;46103;52.076;113.488;2023-06-22T12:03:53;42.50;16.20
60242;SHT30;46103;52.076;113.488;2023-06-22T12:06:57;41.94;16.54
60242;SHT30;46103;52.076;113.488;2023-06-22T12:10:01;41.60;16.80
60242;SHT30;46103;52.076;113.488;2023-06-22T12:13:15;41.13;17.13
60242;SHT30;46103;52.076;113.488;2023-06-22T12:16:20;40.33;17.60
60242;SHT30;46103;52.076;113.488;2023-06-22T12:19:38;39.50;18.11
60242;SHT30;46103;52.076;113.488;2023-06-22T12:22:43;38.92;18.43
60242;SHT30;46103;52.076;113.488;2023-06-22T12:25:47;38.20;18.91
60242;SHT30;46103;52.076;113.488;2023-06-22T12:28:51;37.31;19.50
60242;SHT30;46103;52.076;113.488;2023-06-22T12:31:55;36.04;20.44
60242;SHT30;46103;52.076;113.488;2023-06-22T12:34:58;34.81;21.42
60242;SHT30;46103;52.076;113.488;2023-06-22T12:38:02;33.53;22.47
60242;SHT30;46103;52.076;113.488;2023-06-22T12:41:06;32.15;23.75
60242;SHT30;46103;52.076;113.488;2023-06-22T12:44:11;31.18;24.63
60242;SHT30;46103;52.076;113.488;2023-06-22T12:47:16;30.22;25.57
60242;SHT30;46103;52.076;113.488;2023-06-22T12:50:27;29.44;26.30
60242;SHT30;46103;52.076;113.488;2023-06-22T12:53:32;28.79;27.08
60242;SHT30;46103;52.076;113.488;2023-06-22T12:56:50;28.25;27.70
60242;SHT30;46103;52.076;113.488;2023-06-22T12:59:56;27.88;28.16
60242;SHT30;46103;52.076;113.488;2023-06-22T13:03:02;27.51;28.80
60242;SHT30;46103;52.076;113.488;2023-06-22T13:06:07;27.20;29.20
60242;SHT30;46103;52.076;113.488;2023-06-22T13:09:11;26.84;29.68
60242;SHT30;46103;52.076;113.488;2023-06-22T13:12:17;26.75;29.82
60242;SHT30;46103;52.076;113.488;2023-06-22T13:15:24;26.62;30.02
60242;SHT30;46103;52.076;113.488;2023-06-22T13:18:29;26.37;30.31
60242;SHT30;46103;52.076;113.488;2023-06-22T13:21:33;26.11;30.71
60242;SHT30;46103;52.076;113.488;2023-06-22T13:24:37;26.04;30.76
60242;SHT30;46103;52.076;113.488;2023-06-22T13:27:42;25.93;30.88
60242;SHT30;46103;52.076;113.488;2023-06-22T13:30:46;25.79;31.06
60242;SHT30;46103;52.076;113.488;2023-06-22T13:33:51;25.67;31.21
60242;SHT30;46103;52.076;113.488;2023-06-22T13:36:59;25.53;31.39
60242;SHT30;46103;52.076;113.488;2023-06-22T13:40:05;25.39;31.44
60242;SHT30;46103;52.076;113.488;2023-06-22T13:43:13;25.31;31.55
60242;SHT30;46103;52.076;113.488;2023-06-22T13:46:18;25.18;31.67
60242;SHT30;46103;52.076;113.488;2023-06-22T13:49:21;25.08;31.73
60242;SHT30;46103;52.076;113.488;2023-06-22T13:52:52;25.03;31.71
60242;SHT30;46103;52.076;113.488;2023-06-22T13:55:56;24.98;31.74
60242;SHT30;46103;52.076;113.488;2023-06-22T13:59:01;24.87;31.71
60242;SHT30;46103;52.076;113.488;2023-06-22T14:02:05;24.88;31.69
60242;SHT30;46103;52.076;113.488;2023-06-22T14:05:09;24.83;31.80
60242;SHT30;46103;52.076;113.488;2023-06-22T14:08:17;24.74;31.90
60242;SHT30;46103;52.076;113.488;2023-06-22T14:11:36;24.67;31.93
60242;SHT30;46103;52.076;113.488;2023-06-22T14:14:43;24.64;31.92
60242;SHT30;46103;52.076;113.488;2023-06-22T14:18:01;24.64;31.92
60242;SHT30;46103;52.076;113.488;2023-06-22T14:21:06;24.57;31.86
60242;SHT30;46103;52.076;113.488;2023-06-22T14:24:10;24.49;31.98
60242;SHT30;46103;52.076;113.488;2023-06-22T14:27:16;24.43;32.04
60242;SHT30;46103;52.076;113.488;2023-06-22T14:30:20;24.39;32.05
60242;SHT30;46103;52.076;113.488;2023-06-22T14:33:25;24.33;32.06
60242;SHT30;46103;52.076;113.488;2023-06-22T14:36:28;24.28;32.09
60242;SHT30;46103;52.076;113.488;2023-06-22T14:39:33;24.19;32.14
60242;SHT30;46103;52.076;113.488;2023-06-22T14:42:37;24.11;32.18
60242;SHT30;46103;52.076;113.488;2023-06-22T14:45:45;24.04;32.21
60242;SHT30;46103;52.076;113.488;2023-06-22T14:48:49;24.01;32.17
60242;SHT30;46103;52.076;113.488;2023-06-22T14:51:54;23.95;32.29
60242;SHT30;46103;52.076;113.488;2023-06-22T14:54:57;23.91;32.27
60242;SHT30;46103;52.076;113.488;2023-06-22T14:58:02;23.84;32.33
60242;SHT30;46103;52.076;113.488;2023-06-22T15:01:06;23.79;32.45
60242;SHT30;46103;52.076;113.488;2023-06-22T15:04:12;23.75;32.47
60242;SHT30;46103;52.076;113.488;2023-06-22T15:07:17;23.66;32.55
60242;SHT30;46103;52.076;113.488;2023-06-22T15:10:22;23.60;32.58
60242;SHT30;46103;52.076;113.488;2023-06-22T15:13:26;23.51;32.89
60242;SHT30;46103;52.076;113.488;2023-06-22T15:16:31;23.29;35.54
60242;SHT30;46103;52.076;113.488;2023-06-22T15:19:38;22.78;36.91
60242;SHT30;46103;52.076;113.488;2023-06-22T15:22:43;22.54;37.32
60242;SHT30;46103;52.076;113.488;2023-06-22T15:25:50;22.32;37.90
60242;SHT30;46103;52.076;113.488;2023-06-22T15:28:57;22.13;37.86
60242;SHT30;46103;52.076;113.488;2023-06-22T15:32:04;22.08;38.14
60242;SHT30;46103;52.076;113.488;2023-06-22T15:35:12;21.85;38.83
60242;SHT30;46103;52.076;113.488;2023-06-22T15:38:23;21.61;39.35
60242;SHT30;46103;52.076;113.488;2023-06-22T15:41:34;21.31;40.14
60242;SHT30;46103;52.076;113.488;2023-06-22T15:44:40;21.19;40.49
60242;SHT30;46103;52.076;113.488;2023-06-22T15:47:50;21.23;40.33
60242;SHT30;46103;52.076;113.488;2023-06-22T15:50:57;21.27;40.19
60242;SHT30;46103;52.076;113.488;2023-06-22T15:54:08;21.30;39.86
60242;SHT30;46103;52.076;113.488;2023-06-22T15:57:18;21.28;39.83
60242;SHT30;46103;52.076;113.488;2023-06-22T16:00:28;21.33;39.16
60242;SHT30;46103;52.076;113.488;2023-06-22T16:03:36;21.34;39.14
60242;SHT30;46103;52.076;113.488;2023-06-22T16:06:47;21.41;38.54
60242;SHT30;46103;52.076;113.488;2023-06-22T16:09:56;21.48;38.13
60242;SHT30;46103;52.076;113.488;2023-06-22T16:13:04;21.48;37.88
60242;SHT30;46103;52.076;113.488;2023-06-22T16:16:11;21.52;37.86
60242;SHT30;46103;52.076;113.488;2023-06-22T16:19:21;21.54;37.86
60242;SHT30;46103;52.076;113.488;2023-06-22T16:22:29;21.57;37.71
60242;SHT30;46103;52.076;113.488;2023-06-22T16:25:38;21.55;37.38
60242;SHT30;46103;52.076;113.488;2023-06-22T16:28:46;21.45;37.75
60242;SHT30;46103;52.076;113.488;2023-06-22T16:31:54;21.38;37.81
60242;SHT30;46103;52.076;113.488;2023-06-22T16:35:01;21.33;38.24
60242;SHT30;46103;52.076;113.488;2023-06-22T16:38:08;21.27;38.48
60242;SHT30;46103;52.076;113.488;2023-06-22T16:41:15;21.17;38.82
60242;SHT30;46103;52.076;113.488;2023-06-22T16:44:23;21.07;39.02
60242;SHT30;46103;52.076;113.488;2023-06-22T16:47:29;20.92;38.85
60242;SHT30;46103;52.076;113.488;2023-06-22T16:50:36;20.80;39.80
60242;SHT30;46103;52.076;113.488;2023-06-22T16:53:42;20.59;40.17
60242;SHT30;46103;52.076;113.488;2023-06-22T16:56:49;20.47;39.16
60242;SHT30;46103;52.076;113.488;2023-06-22T16:59:57;20.49;39.12
60242;SHT30;46103;52.076;113.488;2023-06-22T17:03:05;20.47;39.28
60242;SHT30;46103;52.076;113.488;2023-06-22T17:06:14;20.47;38.98
60242;SHT30;46103;52.076;113.488;2023-06-22T17:09:22;20.45;39.20
60242;SHT30;46103;52.076;113.488;2023-06-22T17:12:31;20.41;39.62
60242;SHT30;46103;52.076;113.488;2023-06-22T17:15:38;20.34;39.47
60242;SHT30;46103;52.076;113.488;2023-06-22T17:18:48;20.42;39.27
60242;SHT30;46103;52.076;113.488;2023-06-22T17:21:56;20.45;39.08
60242;SHT30;46103;52.076;113.488;2023-06-22T17:25:04;20.45;39.17
60242;SHT30;46103;52.076;113.488;2023-06-22T17:28:11;20.48;39.09
60242;SHT30;46103;52.076;113.488;2023-06-22T17:31:18;20.56;39.04
60242;SHT30;46103;52.076;113.488;2023-06-22T17:34:28;20.48;39.39
60242;SHT30;46103;52.076;113.488;2023-06-22T17:37:51;20.35;39.81
60242;SHT30;46103;52.076;113.488;2023-06-22T17:41:01;20.20;40.45
60242;SHT30;46103;52.076;113.488;2023-06-22T17:44:11;20.07;40.80
60242;SHT30;46103;52.076;113.488;2023-06-22T17:47:25;19.97;41.11
60242;SHT30;46103;52.076;113.488;2023-06-22T17:50:31;19.87;41.27
60242;SHT30;46103;52.076;113.488;2023-06-22T17:53:39;19.75;41.74
60242;SHT30;46103;52.076;113.488;2023-06-22T17:56:48;19.55;42.65
60242;SHT30;46103;52.076;113.488;2023-06-22T17:59:55;19.25;43.55
60242;SHT30;46103;52.076;113.488;2023-06-22T18:03:02;19.11;43.93
60242;SHT30;46103;52.076;113.488;2023-06-22T18:06:11;18.80;44.62
60242;SHT30;46103;52.076;113.488;2023-06-22T18:09:16;18.43;45.92
60242;SHT30;46103;52.076;113.488;2023-06-22T18:12:25;18.04;47.29
60242;SHT30;46103;52.076;113.488;2023-06-22T18:15:38;17.66;47.78
60242;SHT30;46103;52.076;113.488;2023-06-22T18:18:44;17.36;48.23
60242;SHT30;46103;52.076;113.488;2023-06-22T18:21:52;17.16;48.92
60242;SHT30;46103;52.076;113.488;2023-06-22T18:24:59;16.92;49.49
60242;SHT30;46103;52.076;113.488;2023-06-22T18:28:08;16.88;49.97
60242;SHT30;46103;52.076;113.488;2023-06-22T18:31:15;16.80;50.41
60242;SHT30;46103;52.076;113.488;2023-06-22T18:34:21;16.68;51.30
60242;SHT30;46103;52.076;113.488;2023-06-22T18:37:30;16.56;51.09
60242;SHT30;46103;52.076;113.488;2023-06-22T18:40:37;16.50;50.74
60242;SHT30;46103;52.076;113.488;2023-06-22T18:43:42;16.52;51.03
60242;SHT30;46103;52.076;113.488;2023-06-22T18:46:50;16.43;51.83
60242;SHT30;46103;52.076;113.488;2023-06-22T18:50:09;16.32;51.35
60242;SHT30;46103;52.076;113.488;2023-06-22T18:53:26;16.42;50.37
60242;SHT30;46103;52.076;113.488;2023-06-22T18:56:32;16.50;50.37
60242;SHT30;46103;52.076;113.488;2023-06-22T19:00:06;16.61;50.05
60242;SHT30;46103;52.076;113.488;2023-06-22T19:03:36;16.71;50.79
60242;SHT30;46103;52.076;113.488;2023-06-22T19:13:30;16.68;50.94